Time;durP1;ratioP1;P1;durP2;ratioP2;P2;SDS_P1;SDS_P2;PMS_P1;PMS_P2;Temp;Humidity;BMP_temperature;BMP_pressure;BME280_temperature;BME280_humidity;BME280_pressure;Samples;Min_cycle;Max_cycle;Signal;HPM_P1;HPM_P2
2022/01/03 00:01:51;;;;;;;23.05;4.18;;;8.90;99.90;;;;;;5024343;28;20048;-68
2022/01/03 00:04:17;;;;;;;19.70;3.88;;;8.90;99.90;;;;;;5012085;28;20057;-68
2022/01/03 00:06:44;;;;;;;21.55;4.30;;;8.90;99.90;;;;;;5011259;28;20056;-68
2022/01/03 00:09:10;;;;;;;16.58;4.40;;;8.90;99.90;;;;;;5002544;28;20504;-68
2022/01/03 00:11:36;;;;;;;24.23;4.25;;;8.90;99.90;;;;;;5027878;28;20051;-69
2022/01/03 00:14:02;;;;;;;27.63;3.47;;;8.90;99.90;;;;;;5018482;28;20056;-68
2022/01/03 00:16:30;;;;;;;26.50;5.03;;;8.90;99.90;;;;;;5011644;28;20038;-69
2022/01/03 00:18:55;;;;;;;27.55;3.83;;;8.90;99.90;;;;;;4995079;28;20374;-68
2022/01/03 00:21:29;;;;;;;20.70;4.22;;;8.90;99.90;;;;;;5016950;28;20044;-68
2022/01/03 00:24:20;;;;;;;18.15;3.95;;;8.90;99.90;;;;;;5009744;28;20078;-68
2022/01/03 00:26:56;;;;;;;19.27;3.78;;;8.90;99.90;;;;;;5008734;28;20081;-68
2022/01/03 00:29:25;;;;;;;23.13;4.80;;;8.90;99.90;;;;;;4996857;28;20057;-68
2022/01/03 00:31:54;;;;;;;22.58;4.18;;;8.90;99.90;;;;;;5010682;28;20046;-68
2022/01/03 00:34:20;;;;;;;31.65;5.43;;;8.90;99.90;;;;;;5006356;28;20484;-68
2022/01/03 00:36:51;;;;;;;28.90;4.90;;;8.90;99.90;;;;;;5007509;28;20064;-69
2022/01/03 00:39:16;;;;;;;39.40;5.97;;;8.90;99.90;;;;;;5011881;28;20082;-68
2022/01/03 00:41:48;;;;;;;38.28;6.13;;;8.90;99.90;;;;;;5028849;28;20076;-69
2022/01/03 00:44:13;;;;;;;32.63;5.35;;;8.90;99.90;;;;;;5008344;28;20061;-69
2022/01/03 00:46:39;;;;;;;29.95;4.85;;;8.90;99.90;;;;;;5019170;28;20504;-68
2022/01/03 00:49:05;;;;;;;34.05;5.25;;;8.90;99.90;;;;;;5022001;28;20044;-68
2022/01/03 00:51:31;;;;;;;36.42;6.50;;;8.90;99.90;;;;;;5007659;28;20045;-68
2022/01/03 00:53:56;;;;;;;33.85;4.60;;;9.00;99.90;;;;;;5027457;28;20052;-68
2022/01/03 00:56:33;;;;;;;29.95;5.72;;;9.00;99.90;;;;;;5012423;28;20037;-68
2022/01/03 00:59:07;;;;;;;34.22;5.82;;;9.00;99.90;;;;;;4999732;28;20189;-69
2022/01/03 01:01:36;;;;;;;27.67;5.32;;;9.00;99.90;;;;;;5010343;28;20606;-69
2022/01/03 01:04:02;;;;;;;29.17;4.97;;;8.90;99.90;;;;;;5009469;28;20505;-69
2022/01/03 01:06:33;;;;;;;29.00;5.32;;;9.00;99.90;;;;;;5017052;28;20056;-69
2022/01/03 01:09:01;;;;;;;24.58;5.93;;;9.10;99.90;;;;;;5017842;28;20122;-69
2022/01/03 01:11:29;;;;;;;37.85;6.78;;;9.10;99.90;;;;;;5011241;28;20126;-69
2022/01/03 01:13:55;;;;;;;42.90;7.50;;;9.10;99.90;;;;;;5028030;28;20053;-69
2022/01/03 01:16:22;;;;;;;41.95;6.35;;;9.10;99.90;;;;;;5029749;28;20088;-69
2022/01/03 01:18:49;;;;;;;38.55;7.18;;;9.10;99.90;;;;;;5028077;28;20041;-69
2022/01/03 01:21:15;;;;;;;31.75;6.80;;;9.20;99.90;;;;;;5019046;28;20049;-69
2022/01/03 01:23:42;;;;;;;40.55;6.68;;;9.10;99.90;;;;;;5011151;28;20395;-69
2022/01/03 01:28:52;;;;;;;34.47;6.70;;;9.20;99.90;;;;;;5028718;28;20049;-69
2022/01/03 01:31:23;;;;;;;32.15;5.68;;;9.20;99.90;;;;;;5025288;28;20382;-69
2022/01/03 01:33:55;;;;;;;38.25;6.93;;;9.30;99.90;;;;;;5010348;28;20077;-69
2022/01/03 01:36:27;;;;;;;42.58;5.93;;;9.30;99.90;;;;;;5028155;28;20041;-69
2022/01/03 01:39:00;;;;;;;40.30;6.20;;;9.30;99.90;;;;;;5016089;28;20042;-69
2022/01/03 01:41:27;;;;;;;44.13;6.07;;;9.30;99.90;;;;;;5009462;28;20054;-69
2022/01/03 01:43:57;;;;;;;39.92;7.65;;;9.30;99.90;;;;;;5008931;28;20485;-69
2022/01/03 01:46:24;;;;;;;29.08;5.25;;;9.20;99.90;;;;;;5022076;28;20401;-69
2022/01/03 01:48:51;;;;;;;35.80;7.85;;;9.20;99.90;;;;;;5005719;28;20493;-69
2022/01/03 01:51:19;;;;;;;35.08;5.40;;;9.20;99.90;;;;;;5007739;28;20156;-69
2022/01/03 01:53:53;;;;;;;39.55;5.93;;;9.20;99.90;;;;;;5019179;28;20721;-69
2022/01/03 01:56:27;;;;;;;38.40;7.63;;;9.20;99.90;;;;;;5015424;28;20053;-69
2022/01/03 01:58:58;;;;;;;;;;;9.20;99.90;;;;;;5007281;28;20486;-69
2022/01/03 02:01:42;;;;;;;40.53;6.75;;;9.10;99.90;;;;;;4998304;28;20569;-69
2022/01/03 02:04:31;;;;;;;40.20;6.20;;;9.10;99.90;;;;;;5009345;28;20049;-69
2022/01/03 02:07:27;;;;;;;28.88;6.05;;;9.10;99.90;;;;;;5006518;28;20745;-69
2022/01/03 02:10:05;;;;;;;39.08;8.55;;;9.10;99.90;;;;;;4990360;28;20050;-69
2022/01/03 02:12:36;;;;;;;37.40;7.95;;;9.10;99.90;;;;;;5024634;28;20436;-69
2022/01/03 02:15:02;;;;;;;31.17;7.00;;;9.10;99.90;;;;;;5026780;28;20045;-69
2022/01/03 02:17:28;;;;;;;31.02;5.10;;;9.10;99.90;;;;;;4996415;28;20132;-69
2022/01/03 02:20:03;;;;;;;35.15;7.65;;;9.10;99.90;;;;;;4991272;28;20133;-69
2022/01/03 02:22:28;;;;;;;46.38;8.82;;;9.10;99.90;;;;;;5007893;28;20092;-69
2022/01/03 02:24:54;;;;;;;36.63;6.60;;;9.00;99.90;;;;;;5008354;28;20370;-68
2022/01/03 02:27:20;;;;;;;33.70;6.45;;;9.00;99.90;;;;;;5024819;28;20054;-68
2022/01/03 02:29:45;;;;;;;32.95;6.30;;;9.00;99.90;;;;;;5014255;28;20096;-69
2022/01/03 02:32:11;;;;;;;44.38;8.43;;;9.00;99.90;;;;;;5016467;28;20037;-69
2022/01/03 02:34:36;;;;;;;38.42;7.03;;;9.00;99.90;;;;;;5001953;28;20073;-69
2022/01/03 02:37:02;;;;;;;32.97;7.25;;;9.00;99.90;;;;;;5024130;28;20057;-69
2022/01/03 02:39:28;;;;;;;38.55;8.73;;;9.00;99.90;;;;;;5017967;28;20053;-69
2022/01/03 02:41:54;;;;;;;34.45;6.15;;;8.90;99.90;;;;;;5013617;28;20100;-69
2022/01/03 02:44:19;;;;;;;32.70;5.75;;;9.00;99.90;;;;;;5005344;28;20077;-69
2022/01/03 02:46:45;;;;;;;30.58;5.80;;;8.90;99.90;;;;;;5009440;28;20045;-69
2022/01/03 02:49:10;;;;;;;42.83;7.93;;;8.90;99.90;;;;;;5015270;28;20049;-69
2022/01/03 02:51:36;;;;;;;41.45;8.48;;;9.00;99.90;;;;;;5016559;28;20079;-69
2022/01/03 02:54:02;;;;;;;33.47;6.85;;;8.90;99.90;;;;;;5009134;28;20052;-69
2022/01/03 02:56:34;;;;;;;43.80;7.18;;;8.90;99.90;;;;;;5025960;28;20049;-69
2022/01/03 02:59:00;;;;;;;43.40;7.95;;;9.00;99.90;;;;;;5016920;28;20045;-69
2022/01/03 03:01:26;;;;;;;37.83;6.63;;;8.90;99.90;;;;;;5019830;28;20045;-69
2022/01/03 03:03:51;;;;;;;38.67;8.18;;;8.90;99.90;;;;;;5016374;28;20037;-69
2022/01/03 03:06:17;;;;;;;45.58;8.48;;;8.90;99.90;;;;;;5030011;28;20046;-68
2022/01/03 03:08:42;;;;;;;43.55;7.90;;;8.90;99.90;;;;;;5005433;28;20057;-68
2022/01/03 03:11:08;;;;;;;43.85;7.10;;;9.00;99.90;;;;;;5008161;28;20082;-68
2022/01/03 03:13:34;;;;;;;33.95;7.45;;;9.00;99.90;;;;;;5007489;28;20513;-68
2022/01/03 03:16:00;;;;;;;43.40;6.55;;;9.00;99.90;;;;;;5027086;28;20128;-69
2022/01/03 03:18:25;;;;;;;30.77;7.35;;;9.00;99.90;;;;;;5026292;28;20152;-68
2022/01/03 03:20:54;;;;;;;41.72;8.38;;;9.00;99.90;;;;;;5029725;28;20056;-68
2022/01/03 03:23:20;;;;;;;47.17;8.18;;;9.00;99.90;;;;;;5009397;28;20512;-68
2022/01/03 03:25:46;;;;;;;37.78;6.93;;;8.90;99.90;;;;;;5029559;28;20115;-68
2022/01/03 03:28:15;;;;;;;48.17;8.90;;;9.00;99.90;;;;;;5027566;28;20053;-68
2022/01/03 03:30:47;;;;;;;37.75;7.68;;;9.00;99.90;;;;;;5020265;28;20045;-68
2022/01/03 03:33:18;;;;;;;50.97;8.40;;;9.00;99.90;;;;;;5004758;28;20046;-68
2022/01/03 03:35:45;;;;;;;58.47;9.32;;;9.00;99.90;;;;;;5006947;28;20045;-68
2022/01/03 03:38:11;;;;;;;35.05;7.03;;;9.00;99.90;;;;;;5029596;28;20045;-68
2022/01/03 03:40:37;;;;;;;37.65;6.97;;;9.00;99.90;;;;;;5028712;28;20127;-68
2022/01/03 03:43:03;;;;;;;48.67;8.27;;;9.00;99.90;;;;;;5029679;28;20072;-68
2022/01/03 03:45:29;;;;;;;41.40;7.78;;;9.00;99.90;;;;;;5022491;28;20050;-68
2022/01/03 03:47:57;;;;;;;42.42;7.63;;;9.00;99.90;;;;;;5005880;28;20046;-68
2022/01/03 03:50:24;;;;;;;34.45;5.95;;;9.10;99.90;;;;;;5017417;28;20083;-69
2022/01/03 03:52:50;;;;;;;41.63;9.07;;;9.10;99.90;;;;;;5011690;28;20080;-69
2022/01/03 03:55:15;;;;;;;50.75;9.65;;;9.10;99.90;;;;;;5029772;28;20081;-68
2022/01/03 03:57:41;;;;;;;50.08;7.30;;;9.00;99.90;;;;;;5029765;28;20045;-68
2022/01/03 04:00:11;;;;;;;51.25;8.63;;;9.00;99.90;;;;;;5000030;28;20052;-68
2022/01/03 04:02:36;;;;;;;33.92;6.72;;;9.00;99.90;;;;;;5025703;28;20048;-68
2022/01/03 04:05:03;;;;;;;46.35;8.45;;;8.90;99.90;;;;;;5010120;28;20050;-68
2022/01/03 04:07:28;;;;;;;55.50;8.18;;;8.90;99.90;;;;;;4998263;28;20046;-69
2022/01/03 04:09:54;;;;;;;48.08;8.52;;;8.90;99.90;;;;;;5003114;28;20111;-68
2022/01/03 04:12:19;;;;;;;36.65;6.90;;;8.90;99.90;;;;;;5020382;28;20111;-68
2022/01/03 04:14:45;;;;;;;46.22;6.65;;;8.90;99.90;;;;;;5017742;28;20053;-68
2022/01/03 04:17:12;;;;;;;39.78;7.97;;;8.90;99.90;;;;;;5007529;28;20046;-68
2022/01/03 04:19:38;;;;;;;52.35;6.45;;;8.90;99.90;;;;;;5008083;28;20057;-68
2022/01/03 04:22:03;;;;;;;29.50;6.00;;;8.90;99.90;;;;;;5010679;28;20042;-68
2022/01/03 04:24:29;;;;;;;34.67;7.25;;;8.90;99.90;;;;;;5030593;28;20462;-68
2022/01/03 04:26:55;;;;;;;38.08;7.45;;;8.80;99.90;;;;;;5014768;28;20742;-69
2022/01/03 04:29:20;;;;;;;41.42;7.47;;;8.90;99.90;;;;;;5029383;28;20041;-68
2022/01/03 04:31:46;;;;;;;46.50;8.23;;;8.90;99.90;;;;;;5024250;28;20042;-68
2022/01/03 04:34:13;;;;;;;51.92;8.90;;;8.90;99.90;;;;;;5003884;28;20056;-68
2022/01/03 04:36:39;;;;;;;36.15;7.57;;;8.90;99.90;;;;;;5019310;28;20037;-68
2022/01/03 04:39:05;;;;;;;37.75;7.47;;;8.90;99.90;;;;;;5004019;28;20049;-68
2022/01/03 04:41:31;;;;;;;42.90;7.60;;;8.90;99.90;;;;;;5028954;28;20049;-68
2022/01/03 04:43:56;;;;;;;41.25;7.80;;;8.90;99.90;;;;;;5008646;28;20072;-68
2022/01/03 04:46:22;;;;;;;45.20;10.45;;;8.90;99.90;;;;;;5013644;28;20050;-68
2022/01/03 04:48:48;;;;;;;29.20;6.57;;;8.90;99.90;;;;;;5024276;28;20556;-68
2022/01/03 04:51:13;;;;;;;52.95;8.95;;;8.90;99.90;;;;;;5004811;28;20045;-68
2022/01/03 04:53:40;;;;;;;33.85;7.07;;;8.80;99.90;;;;;;5021858;28;20045;-69
2022/01/03 04:56:10;;;;;;;39.85;7.57;;;8.80;99.90;;;;;;5027107;28;20109;-68
2022/01/03 04:58:37;;;;;;;29.42;7.00;;;8.80;99.90;;;;;;5006477;28;20045;-68
2022/01/03 05:01:03;;;;;;;45.25;8.65;;;8.80;99.90;;;;;;5003485;28;20132;-69
2022/01/03 05:03:28;;;;;;;49.03;7.85;;;8.80;99.90;;;;;;5007809;28;20569;-68
2022/01/03 05:05:54;;;;;;;41.30;6.90;;;8.80;99.90;;;;;;5010234;28;20409;-68
2022/01/03 05:08:20;;;;;;;57.75;9.93;;;8.80;99.90;;;;;;5021658;28;20470;-68
2022/01/03 05:10:45;;;;;;;47.75;8.27;;;8.80;99.90;;;;;;5022440;28;20108;-68
2022/01/03 05:13:11;;;;;;;41.28;7.15;;;8.80;99.90;;;;;;5009106;28;20156;-68
2022/01/03 05:15:36;;;;;;;47.30;7.82;;;8.80;99.90;;;;;;5029264;28;20045;-68
2022/01/03 05:18:02;;;;;;;42.38;7.35;;;8.80;99.90;;;;;;5019788;28;20041;-68
2022/01/03 05:20:28;;;;;;;54.95;9.75;;;8.80;99.90;;;;;;5002481;28;20596;-68
2022/01/03 05:22:54;;;;;;;40.83;8.02;;;8.80;99.90;;;;;;5023096;28;20132;-68
2022/01/03 05:25:19;;;;;;;48.55;9.38;;;8.80;99.90;;;;;;5008193;28;20092;-68
2022/01/03 05:27:45;;;;;;;35.38;7.00;;;8.80;99.90;;;;;;5025803;28;20084;-68
2022/01/03 05:30:11;;;;;;;50.13;8.95;;;8.80;99.90;;;;;;5010553;28;20049;-68
2022/01/03 05:32:37;;;;;;;52.25;9.68;;;8.80;99.90;;;;;;5025509;28;20076;-69
2022/01/03 05:35:03;;;;;;;62.10;9.48;;;8.80;99.90;;;;;;5008147;28;20025;-69
2022/01/03 05:37:29;;;;;;;43.42;8.50;;;8.80;99.90;;;;;;5023395;28;20081;-68
2022/01/03 05:39:54;;;;;;;53.78;8.93;;;8.80;99.90;;;;;;5023195;28;20119;-68
2022/01/03 05:42:20;;;;;;;37.05;8.25;;;8.80;99.90;;;;;;5025675;28;20053;-68
2022/01/03 05:44:45;;;;;;;35.00;7.90;;;8.80;99.90;;;;;;5009368;28;20456;-68
2022/01/03 05:47:11;;;;;;;55.65;10.25;;;8.90;99.90;;;;;;5010749;28;20053;-68
2022/01/03 05:49:36;;;;;;;46.58;7.85;;;8.90;99.90;;;;;;5018704;28;20124;-68
2022/01/03 05:52:02;;;;;;;46.33;9.07;;;8.90;99.90;;;;;;5009847;28;20053;-68
2022/01/03 05:54:28;;;;;;;56.22;9.00;;;8.90;99.90;;;;;;5015792;28;20033;-68
2022/01/03 05:56:53;;;;;;;64.60;9.20;;;8.90;99.90;;;;;;5024431;28;20053;-68
2022/01/03 05:59:19;;;;;;;50.58;8.82;;;8.90;99.90;;;;;;4997286;28;20056;-68
2022/01/03 06:01:46;;;;;;;44.33;10.23;;;8.90;99.90;;;;;;5022347;28;20045;-68
2022/01/03 06:04:23;;;;;;;45.13;9.18;;;8.90;99.90;;;;;;5018555;28;20118;-68
2022/01/03 06:06:55;;;;;;;61.60;9.35;;;8.90;99.90;;;;;;5025673;28;20132;-67
2022/01/03 06:09:22;;;;;;;38.95;7.20;;;8.90;99.90;;;;;;5015228;28;20037;-68
2022/01/03 06:11:48;;;;;;;44.05;7.63;;;8.90;99.90;;;;;;5025402;28;20053;-68
2022/01/03 06:14:16;;;;;;;45.50;8.55;;;8.90;99.90;;;;;;5012905;28;20536;-67
2022/01/03 06:16:42;;;;;;;59.67;8.80;;;9.00;99.90;;;;;;5024457;28;20049;-68
2022/01/03 06:19:08;;;;;;;32.92;7.32;;;8.90;99.90;;;;;;5004690;28;20104;-68
2022/01/03 06:21:40;;;;;;;38.28;8.70;;;8.80;99.90;;;;;;5023538;28;20045;-68
2022/01/03 06:24:09;;;;;;;40.95;7.45;;;8.90;99.90;;;;;;5006409;28;20046;-67
2022/01/03 06:26:36;;;;;;;47.25;8.90;;;8.80;99.90;;;;;;5016722;28;20140;-68
2022/01/03 06:29:03;;;;;;;59.65;10.15;;;8.80;99.90;;;;;;5025239;28;20033;-68
2022/01/03 06:31:28;;;;;;;42.72;9.13;;;8.80;99.90;;;;;;5018911;28;20046;-68
2022/01/03 06:33:54;;;;;;;44.08;8.88;;;8.80;99.90;;;;;;5019457;28;20038;-68
2022/01/03 06:36:19;;;;;;;38.67;8.85;;;8.80;99.90;;;;;;5020525;28;20129;-68
2022/01/03 06:38:45;;;;;;;49.90;8.73;;;8.80;99.90;;;;;;5008933;28;20088;-68
2022/01/03 06:41:10;;;;;;;44.58;8.18;;;8.80;99.90;;;;;;5015044;28;20046;-68
2022/01/03 06:43:36;;;;;;;44.42;9.05;;;8.80;99.90;;;;;;5029065;28;20045;-68
2022/01/03 06:46:02;;;;;;;51.28;9.93;;;8.80;99.90;;;;;;5023887;28;20034;-68
2022/01/03 06:48:27;;;;;;;38.03;7.07;;;8.80;99.90;;;;;;5024865;28;20040;-69
2022/01/03 06:50:53;;;;;;;39.33;7.72;;;8.80;99.90;;;;;;5018652;28;20056;-68
2022/01/03 06:53:19;;;;;;;41.92;8.23;;;8.80;99.90;;;;;;5032078;28;20045;-68
2022/01/03 06:55:44;;;;;;;59.20;10.05;;;8.80;99.90;;;;;;5031506;28;20041;-68
2022/01/03 06:58:10;;;;;;;38.50;7.88;;;8.80;99.90;;;;;;5010558;28;20057;-68
2022/01/03 07:00:35;;;;;;;49.65;9.18;;;8.80;99.90;;;;;;5005376;28;20132;-68
2022/01/03 07:03:01;;;;;;;43.38;8.82;;;8.80;99.90;;;;;;4998645;28;20521;-67
2022/01/03 07:05:27;;;;;;;48.63;8.68;;;8.80;99.90;;;;;;5025509;28;20057;-68
2022/01/03 07:07:52;;;;;;;42.90;9.05;;;8.80;99.90;;;;;;5012051;28;20033;-68
2022/01/03 07:10:19;;;;;;;45.65;9.70;;;8.80;99.90;;;;;;5012214;28;20604;-68
2022/01/03 07:12:47;;;;;;;47.25;7.97;;;8.80;99.90;;;;;;5015130;28;20069;-68
2022/01/03 07:20:41;;;;;;;45.25;8.40;;;8.80;99.90;;;;;;5012256;28;20648;-69
2022/01/03 07:23:07;;;;;;;53.72;9.57;;;8.90;99.90;;;;;;5014805;28;20049;-68
2022/01/03 07:25:32;;;;;;;39.40;7.22;;;8.90;99.90;;;;;;5011226;28;20069;-68
2022/01/03 07:27:58;;;;;;;40.40;6.95;;;8.80;99.90;;;;;;5010262;28;20140;-69
2022/01/03 07:30:24;;;;;;;55.03;10.38;;;8.90;99.90;;;;;;5024962;28;20474;-68
2022/01/03 07:32:50;;;;;;;46.75;8.88;;;8.80;99.90;;;;;;5017742;28;20148;-68
2022/01/03 07:35:16;;;;;;;50.83;9.10;;;8.80;99.90;;;;;;5006628;28;20459;-69
2022/01/03 07:37:42;;;;;;;44.25;8.35;;;8.80;99.90;;;;;;5018061;28;20076;-69
2022/01/03 07:40:08;;;;;;;52.78;9.98;;;8.70;99.90;;;;;;5026428;28;20045;-69
2022/01/03 07:42:34;;;;;;;53.70;7.70;;;8.70;99.90;;;;;;5016774;28;20048;-69
2022/01/03 07:45:00;;;;;;;42.75;9.10;;;8.70;99.90;;;;;;5026618;28;20037;-69
2022/01/03 07:47:25;;;;;;;41.22;8.27;;;8.80;99.90;;;;;;5021934;28;20053;-70
2022/01/03 07:49:51;;;;;;;40.05;8.18;;;8.80;99.90;;;;;;5000808;28;20088;-70
2022/01/03 07:52:16;;;;;;;42.35;7.90;;;8.70;99.90;;;;;;5002598;28;20053;-69
2022/01/03 07:54:42;;;;;;;50.97;8.40;;;8.70;99.90;;;;;;5009350;28;20068;-70
2022/01/03 07:57:07;;;;;;;38.20;6.68;;;8.70;99.90;;;;;;5030454;28;20107;-69
2022/01/03 07:59:33;;;;;;;48.58;8.45;;;8.70;99.90;;;;;;5012660;28;20041;-68
2022/01/03 08:01:59;;;;;;;53.78;9.35;;;8.70;99.90;;;;;;5008687;28;20144;-69
2022/01/03 08:04:26;;;;;;;37.53;7.93;;;8.70;99.90;;;;;;5015976;28;20049;-69
2022/01/03 08:06:51;;;;;;;53.60;9.48;;;8.80;99.90;;;;;;5008449;28;20390;-69
2022/01/03 08:09:17;;;;;;;44.63;7.97;;;8.70;99.90;;;;;;5011274;28;20050;-69
2022/01/03 08:11:42;;;;;;;32.72;7.00;;;8.80;99.90;;;;;;5018354;28;20128;-68
2022/01/03 08:14:08;;;;;;;60.53;10.88;;;8.80;99.90;;;;;;5015100;28;20088;-69
2022/01/03 08:16:34;;;;;;;47.65;6.93;;;8.80;99.90;;;;;;5020098;28;20498;-69
2022/01/03 08:18:59;;;;;;;39.65;8.10;;;8.80;99.90;;;;;;5021414;28;20050;-69
2022/01/03 08:21:25;;;;;;;48.03;8.43;;;8.80;99.90;;;;;;5015224;28;20038;-69
2022/01/03 08:23:51;;;;;;;39.58;8.18;;;8.80;99.90;;;;;;5026541;28;20038;-68
2022/01/03 08:26:17;;;;;;;49.25;8.13;;;8.80;99.90;;;;;;4995114;28;20065;-69
2022/01/03 08:28:43;;;;;;;48.33;8.38;;;8.90;99.90;;;;;;4999997;28;20056;-69
2022/01/03 08:31:09;;;;;;;45.38;7.43;;;8.90;99.90;;;;;;5010569;28;20046;-68
2022/01/03 08:33:34;;;;;;;45.83;8.15;;;8.90;99.90;;;;;;5014508;28;20049;-69
2022/01/03 08:36:01;;;;;;;40.58;9.68;;;8.90;99.90;;;;;;5017900;28;20400;-69
2022/01/03 08:38:26;;;;;;;37.92;7.47;;;9.00;99.90;;;;;;5009199;28;20049;-68
2022/01/03 08:40:52;;;;;;;45.05;8.50;;;9.00;99.90;;;;;;5028830;28;20055;-68
2022/01/03 08:43:19;;;;;;;41.65;7.18;;;9.10;99.90;;;;;;4997148;28;20050;-68
2022/01/03 08:45:44;;;;;;;48.10;7.75;;;9.10;99.90;;;;;;5026604;28;20068;-68
2022/01/03 08:48:10;;;;;;;47.65;8.52;;;9.10;99.90;;;;;;5029033;28;20042;-67
2022/01/03 08:50:35;;;;;;;62.63;8.75;;;9.00;99.90;;;;;;4998427;28;20076;-67
2022/01/03 08:53:04;;;;;;;43.42;7.32;;;9.10;99.90;;;;;;5007609;28;20132;-68
2022/01/03 08:55:30;;;;;;;32.20;7.88;;;9.10;99.90;;;;;;5019707;28;20669;-67
2022/01/03 08:57:56;;;;;;;43.83;9.52;;;9.10;99.90;;;;;;5013051;28;20056;-70
2022/01/03 09:00:21;;;;;;;41.53;7.25;;;9.10;99.90;;;;;;5008733;28;20045;-67
2022/01/03 09:02:47;;;;;;;41.33;7.47;;;9.10;99.90;;;;;;5002906;28;20700;-69
2022/01/03 09:05:13;;;;;;;48.22;8.20;;;9.00;99.90;;;;;;4998599;28;20041;-69
2022/01/03 09:07:39;;;;;;;40.50;7.97;;;9.10;99.90;;;;;;5000473;28;20127;-69
2022/01/03 09:10:05;;;;;;;35.72;7.65;;;9.10;99.90;;;;;;5013582;28;20041;-69
2022/01/03 09:12:31;;;;;;;50.03;8.73;;;9.10;99.90;;;;;;5023381;28;20046;-69
2022/01/03 09:14:58;;;;;;;42.33;8.57;;;9.10;99.90;;;;;;5008722;28;20416;-69
2022/01/03 09:17:24;;;;;;;35.42;6.68;;;9.10;99.90;;;;;;5027553;28;20049;-68
2022/01/03 09:19:50;;;;;;;34.53;6.15;;;9.10;99.90;;;;;;5023663;28;20037;-68
2022/01/03 09:22:20;;;;;;;36.80;7.97;;;9.10;99.90;;;;;;5016943;28;20081;-68
2022/01/03 09:30:16;;;;;;;42.67;7.88;;;9.20;99.90;;;;;;5006168;28;20429;-68
2022/01/03 09:32:43;;;;;;;41.75;8.93;;;9.20;99.90;;;;;;5008076;28;20103;-69
2022/01/03 09:35:09;;;;;;;47.25;9.05;;;9.20;99.90;;;;;;5007014;28;20038;-68
2022/01/03 09:37:36;;;;;;;47.85;8.95;;;9.30;99.90;;;;;;4987904;28;20115;-68
2022/01/03 09:40:04;;;;;;;42.40;9.52;;;9.40;99.90;;;;;;4992143;28;20039;-68
2022/01/03 09:42:31;;;;;;;47.95;7.28;;;9.30;99.90;;;;;;4991042;28;20046;-68
2022/01/03 09:44:59;;;;;;;43.85;7.50;;;9.30;99.90;;;;;;5004706;28;20108;-68
2022/01/03 09:47:29;;;;;;;40.30;6.88;;;9.40;99.90;;;;;;5002983;28;20080;-68
2022/01/03 09:49:56;;;;;;;42.70;8.50;;;9.40;99.90;;;;;;5000902;28;20045;-69
2022/01/03 09:52:24;;;;;;;48.28;8.02;;;9.40;99.90;;;;;;4988715;28;20398;-69
2022/01/03 09:54:50;;;;;;;41.40;7.82;;;9.40;99.90;;;;;;4997009;28;20060;-69
2022/01/03 09:57:21;;;;;;;37.72;7.18;;;9.50;99.90;;;;;;4989543;28;20132;-68
2022/01/03 09:59:47;;;;;;;35.17;7.63;;;9.50;99.90;;;;;;5007027;28;20125;-69
2022/01/03 10:02:15;;;;;;;49.88;9.77;;;9.50;99.90;;;;;;5003046;28;20078;-69
2022/01/03 10:04:40;;;;;;;40.97;7.65;;;9.50;99.90;;;;;;5001473;28;20034;-72
2022/01/03 10:07:14;;;;;;;36.30;7.40;;;9.60;99.90;;;;;;5007212;28;20383;-68
2022/01/03 10:09:40;;;;;;;44.60;8.73;;;9.60;99.90;;;;;;4984443;28;20120;-68
2022/01/03 10:12:08;;;;;;;35.70;6.35;;;9.60;99.90;;;;;;4992966;28;20490;-69
2022/01/03 10:14:34;;;;;;;40.95;8.32;;;9.70;99.90;;;;;;5000475;28;20375;-68
2022/01/03 10:16:59;;;;;;;42.85;7.50;;;9.70;99.90;;;;;;5004836;28;20095;-68
2022/01/03 10:19:25;;;;;;;53.05;9.40;;;9.70;99.90;;;;;;4989648;28;20088;-69
2022/01/03 10:21:51;;;;;;;48.63;8.13;;;9.70;99.90;;;;;;4999583;28;20034;-68
2022/01/03 10:24:29;;;;;;;29.88;7.53;;;9.80;99.90;;;;;;4996039;28;20046;-69
2022/01/03 10:26:56;;;;;;;41.38;7.35;;;9.70;99.90;;;;;;4987447;28;20124;-68
2022/01/03 10:29:24;;;;;;;36.90;7.07;;;9.90;99.90;;;;;;4993685;28;20183;-68
2022/01/03 10:31:55;;;;;;;40.22;7.60;;;9.80;99.90;;;;;;5012503;28;20045;-70
2022/01/03 10:34:25;;;;;;;29.33;6.10;;;9.90;99.90;;;;;;5008863;28;20474;-68
2022/01/03 10:36:54;;;;;;;39.03;6.82;;;9.90;99.90;;;;;;5000101;28;20053;-68
2022/01/03 10:39:22;;;;;;;44.05;9.05;;;9.90;99.90;;;;;;5025226;28;20107;-68
2022/01/03 10:41:50;;;;;;;39.33;7.05;;;9.90;99.90;;;;;;5024786;28;20045;-68
2022/01/03 10:44:37;;;;;;;34.90;6.25;;;10.00;99.90;;;;;;5026431;28;20094;-68
2022/01/03 10:47:04;;;;;;;38.10;7.80;;;10.00;99.90;;;;;;4994796;28;20525;-68
2022/01/03 10:49:32;;;;;;;32.83;8.15;;;10.00;99.90;;;;;;5010011;28;20057;-68
2022/01/03 10:52:15;;;;;;;41.40;7.38;;;10.00;99.90;;;;;;5017810;28;20050;-68
2022/01/03 10:54:42;;;;;;;;;;;10.10;99.90;;;;;;5009173;28;20693;-68
2022/01/03 10:57:08;;;;;;;30.35;6.60;;;10.10;99.90;;;;;;5018287;28;20005;-69
2022/01/03 10:59:35;;;;;;;36.40;6.35;;;10.10;99.90;;;;;;5006803;28;20049;-69
2022/01/03 11:02:07;;;;;;;40.25;6.88;;;10.10;99.90;;;;;;4992776;28;20482;-69
2022/01/03 11:13:14;;;;;;;25.23;6.93;;;10.30;99.90;;;;;;4993842;28;20474;-69
2022/01/03 11:15:48;;;;;;;37.78;8.13;;;10.30;99.90;;;;;;5002590;28;20046;-68
2022/01/03 11:18:15;;;;;;;;;;;10.30;99.90;;;;;;5006118;28;20042;-68
2022/01/03 11:20:41;;;;;;;36.60;6.88;;;10.30;99.90;;;;;;5024040;28;19966;-68
2022/01/03 11:23:07;;;;;;;37.05;7.22;;;10.30;99.90;;;;;;5006510;28;20144;-69
2022/01/03 11:25:34;;;;;;;38.45;7.72;;;10.30;99.90;;;;;;5011478;28;20131;-67
2022/01/03 11:28:02;;;;;;;32.70;6.72;;;10.30;99.90;;;;;;5019425;28;20079;-69
2022/01/03 11:30:29;;;;;;;28.90;7.55;;;10.40;99.90;;;;;;5023495;28;20057;-68
2022/01/03 11:32:56;;;;;;;34.15;7.10;;;10.40;99.90;;;;;;5008964;28;20076;-68
2022/01/03 11:35:22;;;;;;;33.97;6.88;;;10.40;99.90;;;;;;5019208;28;20045;-68
2022/01/03 11:37:48;;;;;;;30.83;7.00;;;10.40;99.90;;;;;;5014051;28;20037;-68
2022/01/03 11:40:16;;;;;;;37.60;6.65;;;10.50;99.90;;;;;;5015890;28;20486;-67
2022/01/03 11:42:44;;;;;;;36.58;7.03;;;10.50;99.90;;;;;;5006694;28;20033;-69
2022/01/03 11:45:10;;;;;;;31.17;7.75;;;10.60;99.90;;;;;;5003754;28;20045;-69
2022/01/03 11:47:37;;;;;;;40.30;8.23;;;10.70;99.90;;;;;;5006663;28;20053;-69
2022/01/03 11:50:05;;;;;;;25.30;6.25;;;10.60;99.90;;;;;;5005519;28;20046;-69
2022/01/03 11:52:31;;;;;;;35.80;6.57;;;10.60;99.90;;;;;;5022981;28;20054;-67
2022/01/03 11:54:57;;;;;;;40.58;6.97;;;10.70;99.90;;;;;;5008528;28;20129;-67
2022/01/03 11:57:39;;;;;;;38.47;6.75;;;10.70;99.90;;;;;;5002024;28;20085;-67
2022/01/03 12:05:49;;;;;;;34.22;5.32;;;11.00;99.90;;;;;;5003131;28;20499;-67
2022/01/03 12:08:26;;;;;;;33.50;6.40;;;11.00;99.90;;;;;;5005590;28;20045;-67
2022/01/03 12:10:52;;;;;;;33.63;6.65;;;11.10;99.90;;;;;;5022048;28;20045;-67
2022/01/03 12:13:20;;;;;;;30.90;6.50;;;11.10;99.90;;;;;;5018635;28;20054;-67
2022/01/03 12:15:46;;;;;;;34.40;6.25;;;11.20;99.90;;;;;;5008609;28;20064;-67
2022/01/03 12:19:00;;;;;;;35.28;6.97;;;11.40;99.90;;;;;;5000977;28;20057;-66
2022/01/03 12:21:49;;;;;;;43.42;7.68;;;11.40;99.90;;;;;;4994208;28;20414;-67
2022/01/03 12:24:39;;;;;;;37.50;7.43;;;11.50;99.90;;;;;;5013774;28;20057;-67
2022/01/03 12:27:14;;;;;;;38.20;6.90;;;11.50;99.90;;;;;;5023340;28;20061;-67
2022/01/03 12:29:58;;;;;;;36.42;7.85;;;11.40;99.90;;;;;;5017041;28;20049;-67
2022/01/03 12:32:31;;;;;;;32.60;7.30;;;11.50;99.90;;;;;;5022352;28;20111;-67
2022/01/03 12:35:23;;;;;;;27.88;6.28;;;11.50;99.90;;;;;;4997045;28;20397;-67
2022/01/03 12:37:55;;;;;;;38.20;6.82;;;11.50;99.90;;;;;;5019903;28;20068;-67
2022/01/03 12:40:22;;;;;;;47.75;8.70;;;11.50;99.90;;;;;;5021155;28;20057;-67
2022/01/03 12:45:33;;;;;;;35.95;7.90;;;11.40;99.90;;;;;;5023299;28;20053;-67
2022/01/03 12:48:11;;;;;;;33.95;7.10;;;11.50;99.90;;;;;;5009460;28;20550;-67
2022/01/03 12:50:51;;;;;;;47.67;10.05;;;11.50;99.90;;;;;;5012207;28;20813;-67
2022/01/03 12:53:26;;;;;;;50.40;7.93;;;11.50;99.90;;;;;;5015016;28;20088;-67
2022/01/03 12:55:54;;;;;;;29.52;8.30;;;11.60;99.90;;;;;;5020889;28;20051;-67
2022/01/03 12:58:19;;;;;;;35.08;7.22;;;11.60;99.90;;;;;;5001637;28;20658;-67
2022/01/03 13:00:47;;;;;;;36.10;7.80;;;11.60;99.90;;;;;;5019076;28;20069;-67
2022/01/03 13:03:26;;;;;;;44.17;8.55;;;11.60;99.90;;;;;;5022874;28;20033;-67
2022/01/03 13:06:13;;;;;;;35.15;7.15;;;11.60;99.90;;;;;;5026422;28;20069;-67
2022/01/03 13:08:48;;;;;;;30.65;8.02;;;11.60;99.90;;;;;;5018309;28;20042;-65
2022/01/03 13:11:15;;;;;;;37.15;8.25;;;11.60;99.90;;;;;;5000394;28;20056;-66
2022/01/03 13:13:44;;;;;;;33.35;7.03;;;11.70;99.90;;;;;;5015757;28;20049;-67
2022/01/03 13:16:21;;;;;;;41.08;6.68;;;11.70;99.90;;;;;;5015504;28;20088;-67
2022/01/03 13:18:58;;;;;;;42.60;7.63;;;11.70;99.90;;;;;;5018319;28;20051;-66
2022/01/03 13:21:28;;;;;;;36.42;8.13;;;11.80;99.90;;;;;;5027844;28;20543;-66